sensor_id;sensor_type;location;lat;lon;timestamp;pressure;altitude;pressure_sealevel;temperature;humidity
67931;BME280;54726;52.000;5.954;2022-08-21T00:00:37;101338.69;;;13.69;80.34
67931;BME280;54726;52.000;5.954;2022-08-21T00:01:38;101334.22;;;13.69;80.33
67931;BME280;54726;52.000;5.954;2022-08-21T00:02:44;101331.69;;;13.66;80.28
67931;BME280;54726;52.000;5.954;2022-08-21T00:03:46;101336.97;;;13.68;80.36
67931;BME280;54726;52.000;5.954;2022-08-21T00:04:48;101321.31;;;13.60;80.37
67931;BME280;54726;52.000;5.954;2022-08-21T00:05:50;101330.81;;;13.65;80.27
67931;BME280;54726;52.000;5.954;2022-08-21T00:06:51;101322.25;;;13.59;80.47
67931;BME280;54726;52.000;5.954;2022-08-21T00:07:51;101330.16;;;13.60;80.58
67931;BME280;54726;52.000;5.954;2022-08-21T00:08:52;101333.69;;;13.61;80.57
67931;BME280;54726;52.000;5.954;2022-08-21T00:09:52;101333.59;;;13.64;80.54
67931;BME280;54726;52.000;5.954;2022-08-21T00:10:53;101324.94;;;13.59;80.59
67931;BME280;54726;52.000;5.954;2022-08-21T00:11:53;101326.59;;;13.61;80.63
67931;BME280;54726;52.000;5.954;2022-08-21T00:12:54;101333.78;;;13.59;80.55
67931;BME280;54726;52.000;5.954;2022-08-21T00:13:55;101323.31;;;13.55;80.78
67931;BME280;54726;52.000;5.954;2022-08-21T00:14:57;101325.94;;;13.56;80.61
67931;BME280;54726;52.000;5.954;2022-08-21T00:15:58;101325.22;;;13.53;80.66
67931;BME280;54726;52.000;5.954;2022-08-21T00:16:59;101326.94;;;13.54;80.93
67931;BME280;54726;52.000;5.954;2022-08-21T00:17:59;101332.31;;;13.52;80.99
67931;BME280;54726;52.000;5.954;2022-08-21T00:19:00;101325.25;;;13.51;81.21
67931;BME280;54726;52.000;5.954;2022-08-21T00:20:01;101329.78;;;13.49;81.27
67931;BME280;54726;52.000;5.954;2022-08-21T00:21:02;101328.13;;;13.47;81.08
67931;BME280;54726;52.000;5.954;2022-08-21T00:22:03;101327.25;;;13.46;81.35
67931;BME280;54726;52.000;5.954;2022-08-21T00:23:04;101320.28;;;13.43;81.22
67931;BME280;54726;52.000;5.954;2022-08-21T00:24:05;101327.41;;;13.43;81.25
67931;BME280;54726;52.000;5.954;2022-08-21T00:25:07;101322.03;;;13.45;81.51
67931;BME280;54726;52.000;5.954;2022-08-21T00:26:07;101326.47;;;13.44;81.44
67931;BME280;54726;52.000;5.954;2022-08-21T00:27:08;101321.22;;;13.42;81.29
67931;BME280;54726;52.000;5.954;2022-08-21T00:28:08;101315.88;;;13.42;81.28
67931;BME280;54726;52.000;5.954;2022-08-21T00:29:09;101327.50;;;13.41;81.60
67931;BME280;54726;52.000;5.954;2022-08-21T00:30:12;101323.22;;;13.37;81.34
67931;BME280;54726;52.000;5.954;2022-08-21T00:31:13;101321.50;;;13.36;81.63
67931;BME280;54726;52.000;5.954;2022-08-21T00:32:19;101325.16;;;13.34;81.55
67931;BME280;54726;52.000;5.954;2022-08-21T00:33:20;101326.06;;;13.33;81.51
67931;BME280;54726;52.000;5.954;2022-08-21T00:34:21;101330.63;;;13.31;81.57
67931;BME280;54726;52.000;5.954;2022-08-21T00:35:25;101324.41;;;13.30;81.89
67931;BME280;54726;52.000;5.954;2022-08-21T00:36:25;101323.75;;;13.25;81.59
67931;BME280;54726;52.000;5.954;2022-08-21T00:37:26;101320.19;;;13.25;81.92
67931;BME280;54726;52.000;5.954;2022-08-21T00:38:27;101330.78;;;13.28;81.89
67931;BME280;54726;52.000;5.954;2022-08-21T00:39:27;101328.09;;;13.28;81.69
67931;BME280;54726;52.000;5.954;2022-08-21T00:40:30;101323.69;;;13.27;81.67
67931;BME280;54726;52.000;5.954;2022-08-21T00:41:31;101327.31;;;13.26;81.85
67931;BME280;54726;52.000;5.954;2022-08-21T00:42:32;101333.47;;;13.26;81.71
67931;BME280;54726;52.000;5.954;2022-08-21T00:43:34;101331.78;;;13.24;81.86
67931;BME280;54726;52.000;5.954;2022-08-21T00:44:35;101333.59;;;13.23;81.97
67931;BME280;54726;52.000;5.954;2022-08-21T00:45:37;101316.88;;;13.19;81.83
67931;BME280;54726;52.000;5.954;2022-08-21T00:46:38;101319.59;;;13.18;82.12
67931;BME280;54726;52.000;5.954;2022-08-21T00:47:39;101319.69;;;13.16;81.94
67931;BME280;54726;52.000;5.954;2022-08-21T00:48:39;101312.59;;;13.15;82.17
67931;BME280;54726;52.000;5.954;2022-08-21T00:49:40;101326.66;;;13.19;82.29
67931;BME280;54726;52.000;5.954;2022-08-21T00:50:43;101324.88;;;13.19;82.05
67931;BME280;54726;52.000;5.954;2022-08-21T00:51:47;101318.75;;;13.17;82.03
67931;BME280;54726;52.000;5.954;2022-08-21T00:52:50;101316.13;;;13.16;82.35
67931;BME280;54726;52.000;5.954;2022-08-21T00:53:55;101324.88;;;13.19;82.19
67931;BME280;54726;52.000;5.954;2022-08-21T00:54:58;101295.44;;;13.02;82.18
67931;BME280;54726;52.000;5.954;2022-08-21T00:56:00;101320.47;;;13.18;82.03
67931;BME280;54726;52.000;5.954;2022-08-21T00:57:03;101323.94;;;13.20;82.22
67931;BME280;54726;52.000;5.954;2022-08-21T00:58:06;101322.22;;;13.19;82.13
67931;BME280;54726;52.000;5.954;2022-08-21T00:59:07;101314.41;;;13.15;81.94
67931;BME280;54726;52.000;5.954;2022-08-21T01:00:11;101319.75;;;13.15;82.25
67931;BME280;54726;52.000;5.954;2022-08-21T01:01:13;101318.06;;;13.12;82.26
67931;BME280;54726;52.000;5.954;2022-08-21T01:02:15;101309.22;;;13.12;82.53
67931;BME280;54726;52.000;5.954;2022-08-21T01:03:18;101306.75;;;13.07;82.43
67931;BME280;54726;52.000;5.954;2022-08-21T01:04:20;101311.09;;;13.10;82.58
67931;BME280;54726;52.000;5.954;2022-08-21T01:05:21;101315.56;;;13.09;82.58
67931;BME280;54726;52.000;5.954;2022-08-21T01:06:21;101308.50;;;13.08;82.66
67931;BME280;54726;52.000;5.954;2022-08-21T01:07:21;101302.56;;;13.02;82.50
67931;BME280;54726;52.000;5.954;2022-08-21T01:08:23;101305.97;;;13.05;82.57
67931;BME280;54726;52.000;5.954;2022-08-21T01:09:23;101307.84;;;13.03;82.82
67931;BME280;54726;52.000;5.954;2022-08-21T01:10:24;101290.31;;;12.97;82.81
67931;BME280;54726;52.000;5.954;2022-08-21T01:11:24;101303.41;;;13.02;82.83
67931;BME280;54726;52.000;5.954;2022-08-21T01:12:25;101299.13;;;12.99;82.66
67931;BME280;54726;52.000;5.954;2022-08-21T01:13:28;101304.38;;;13.01;83.00
67931;BME280;54726;52.000;5.954;2022-08-21T01:14:30;101306.16;;;13.01;82.89
67931;BME280;54726;52.000;5.954;2022-08-21T01:15:34;101305.31;;;13.00;83.06
67931;BME280;54726;52.000;5.954;2022-08-21T01:16:36;101305.31;;;13.00;83.03
67931;BME280;54726;52.000;5.954;2022-08-21T01:17:37;101311.53;;;12.99;82.86
67931;BME280;54726;52.000;5.954;2022-08-21T01:18:38;101308.88;;;12.99;82.86
67931;BME280;54726;52.000;5.954;2022-08-21T01:19:38;101314.22;;;12.99;83.30
67931;BME280;54726;52.000;5.954;2022-08-21T01:20:42;101308.88;;;12.99;82.83
67931;BME280;54726;52.000;5.954;2022-08-21T01:21:45;101317.81;;;12.98;83.08
67931;BME280;54726;52.000;5.954;2022-08-21T01:22:45;101317.88;;;12.96;82.90
67931;BME280;54726;52.000;5.954;2022-08-21T01:23:50;101312.63;;;12.95;83.20
67931;BME280;54726;52.000;5.954;2022-08-21T01:24:50;101315.28;;;12.95;83.27
67931;BME280;54726;52.000;5.954;2022-08-21T01:25:51;101318.88;;;12.94;83.25
67931;BME280;54726;52.000;5.954;2022-08-21T01:26:51;101314.69;;;12.88;83.27
67931;BME280;54726;52.000;5.954;2022-08-21T01:27:52;101321.66;;;12.91;83.17
67931;BME280;54726;52.000;5.954;2022-08-21T01:28:57;101319.13;;;12.88;83.29
67931;BME280;54726;52.000;5.954;2022-08-21T01:30:04;101317.41;;;12.87;83.60
67931;BME280;54726;52.000;5.954;2022-08-21T01:31:10;101317.47;;;12.85;83.47
67931;BME280;54726;52.000;5.954;2022-08-21T01:32:16;101320.19;;;12.84;83.42
67931;BME280;54726;52.000;5.954;2022-08-21T01:33:17;101312.25;;;12.82;83.72
67931;BME280;54726;52.000;5.954;2022-08-21T01:34:18;101316.59;;;12.85;83.33
67931;BME280;54726;52.000;5.954;2022-08-21T01:35:19;101316.59;;;12.85;83.28
67931;BME280;54726;52.000;5.954;2022-08-21T01:36:20;101320.19;;;12.84;83.33
67931;BME280;54726;52.000;5.954;2022-08-21T01:37:22;101327.25;;;12.85;83.48
67931;BME280;54726;52.000;5.954;2022-08-21T01:38:23;101322.78;;;12.85;83.63
67931;BME280;54726;52.000;5.954;2022-08-21T01:39:23;101317.66;;;12.81;83.74
67931;BME280;54726;52.000;5.954;2022-08-21T01:40:24;101314.88;;;12.84;83.46
67931;BME280;54726;52.000;5.954;2022-08-21T01:41:24;101319.34;;;12.83;83.52
67931;BME280;54726;52.000;5.954;2022-08-21T01:42:25;101311.81;;;12.72;83.60
67931;BME280;54726;52.000;5.954;2022-08-21T01:43:26;101322.19;;;12.79;83.37
67931;BME280;54726;52.000;5.954;2022-08-21T01:44:27;101324.81;;;12.80;83.66
67931;BME280;54726;52.000;5.954;2022-08-21T01:45:27;101317.00;;;12.75;83.61
67931;BME280;54726;52.000;5.954;2022-08-21T01:46:28;101324.81;;;12.80;83.62
67931;BME280;54726;52.000;5.954;2022-08-21T01:47:28;101308.94;;;12.77;83.81
67931;BME280;54726;52.000;5.954;2022-08-21T01:48:29;101315.00;;;12.81;83.49
67931;BME280;54726;52.000;5.954;2022-08-21T01:49:29;101319.47;;;12.80;83.58
67931;BME280;54726;52.000;5.954;2022-08-21T01:50:30;101321.25;;;12.80;83.78
67931;BME280;54726;52.000;5.954;2022-08-21T01:51:31;101319.53;;;12.79;83.44
67931;BME280;54726;52.000;5.954;2022-08-21T01:52:33;101315.31;;;12.73;83.83
67931;BME280;54726;52.000;5.954;2022-08-21T01:53:35;101317.00;;;12.75;83.60
67931;BME280;54726;52.000;5.954;2022-08-21T01:54:36;101320.66;;;12.73;83.99
67931;BME280;54726;52.000;5.954;2022-08-21T01:55:37;101317.13;;;12.72;84.03
67931;BME280;54726;52.000;5.954;2022-08-21T01:56:40;101317.31;;;12.68;84.09
67931;BME280;54726;52.000;5.954;2022-08-21T01:57:41;101312.81;;;12.70;84.03
67931;BME280;54726;52.000;5.954;2022-08-21T01:58:44;101310.44;;;12.62;84.06
67931;BME280;54726;52.000;5.954;2022-08-21T01:59:44;101314.66;;;12.68;84.20
67931;BME280;54726;52.000;5.954;2022-08-21T02:00:45;101312.84;;;12.68;83.97
67931;BME280;54726;52.000;5.954;2022-08-21T02:01:45;101311.06;;;12.69;84.00
67931;BME280;54726;52.000;5.954;2022-08-21T02:02:46;101313.78;;;12.67;84.11
67931;BME280;54726;52.000;5.954;2022-08-21T02:03:46;101308.47;;;12.67;84.08
67931;BME280;54726;52.000;5.954;2022-08-21T02:04:47;101306.75;;;12.66;84.08
67931;BME280;54726;52.000;5.954;2022-08-21T02:05:47;101312.06;;;12.66;84.02
67931;BME280;54726;52.000;5.954;2022-08-21T02:06:48;101304.88;;;12.68;83.94
67931;BME280;54726;52.000;5.954;2022-08-21T02:07:54;101297.78;;;12.69;84.18
67931;BME280;54726;52.000;5.954;2022-08-21T02:08:55;101303.16;;;12.67;84.06
67931;BME280;54726;52.000;5.954;2022-08-21T02:09:55;101306.75;;;12.66;84.20
67931;BME280;54726;52.000;5.954;2022-08-21T02:10:56;101297.94;;;12.64;84.01
67931;BME280;54726;52.000;5.954;2022-08-21T02:11:56;101296.16;;;12.65;84.08
67931;BME280;54726;52.000;5.954;2022-08-21T02:12:58;101301.47;;;12.65;83.92
67931;BME280;54726;52.000;5.954;2022-08-21T02:13:58;101304.09;;;12.66;84.22
67931;BME280;54726;52.000;5.954;2022-08-21T02:14:59;101302.34;;;12.65;84.11
67931;BME280;54726;52.000;5.954;2022-08-21T02:15:59;101305.00;;;12.65;84.01
67931;BME280;54726;52.000;5.954;2022-08-21T02:17:00;101305.00;;;12.65;84.03
67931;BME280;54726;52.000;5.954;2022-08-21T02:18:02;101293.81;;;12.57;84.20
67931;BME280;54726;52.000;5.954;2022-08-21T02:19:05;101300.66;;;12.63;84.37
67931;BME280;54726;52.000;5.954;2022-08-21T02:20:07;101304.28;;;12.62;84.19
67931;BME280;54726;52.000;5.954;2022-08-21T02:21:08;101292.91;;;12.58;84.33
67931;BME280;54726;52.000;5.954;2022-08-21T02:22:09;101300.94;;;12.57;84.17
67931;BME280;54726;52.000;5.954;2022-08-21T02:23:12;101305.44;;;12.54;84.51
67931;BME280;54726;52.000;5.954;2022-08-21T02:24:13;101286.34;;;12.45;84.17
67931;BME280;54726;52.000;5.954;2022-08-21T02:25:14;101300.31;;;12.50;84.49
67931;BME280;54726;52.000;5.954;2022-08-21T02:26:14;101295.00;;;12.50;84.49
67931;BME280;54726;52.000;5.954;2022-08-21T02:27:14;101304.78;;;12.49;84.71
67931;BME280;54726;52.000;5.954;2022-08-21T02:28:15;101299.50;;;12.48;84.82
67931;BME280;54726;52.000;5.954;2022-08-21T02:29:15;101296.00;;;12.47;84.68
67931;BME280;54726;52.000;5.954;2022-08-21T02:30:20;101293.38;;;12.46;84.87
67931;BME280;54726;52.000;5.954;2022-08-21T02:31:21;101298.72;;;12.46;84.88
67931;BME280;54726;52.000;5.954;2022-08-21T02:32:22;101294.47;;;12.42;84.74
67931;BME280;54726;52.000;5.954;2022-08-21T02:33:23;101292.66;;;12.42;84.85
67931;BME280;54726;52.000;5.954;2022-08-21T02:34:24;101299.78;;;12.42;85.12
67931;BME280;54726;52.000;5.954;2022-08-21T02:35:25;101289.38;;;12.36;84.74
67931;BME280;54726;52.000;5.954;2022-08-21T02:36:26;101290.16;;;12.38;84.86
67931;BME280;54726;52.000;5.954;2022-08-21T02:37:26;101290.16;;;12.38;85.09
67931;BME280;54726;52.000;5.954;2022-08-21T02:38:31;101288.44;;;12.37;85.13
67931;BME280;54726;52.000;5.954;2022-08-21T02:39:32;101297.13;;;12.42;84.90
67931;BME280;54726;52.000;5.954;2022-08-21T02:40:36;101294.50;;;12.40;85.26
67931;BME280;54726;52.000;5.954;2022-08-21T02:41:36;101291.06;;;12.38;84.96
67931;BME280;54726;52.000;5.954;2022-08-21T02:42:37;101288.44;;;12.37;84.92
67931;BME280;54726;52.000;5.954;2022-08-21T02:43:37;101291.94;;;12.39;84.92
67931;BME280;54726;52.000;5.954;2022-08-21T02:44:38;101289.31;;;12.37;85.02
67931;BME280;54726;52.000;5.954;2022-08-21T02:45:39;101292.91;;;12.36;85.18
67931;BME280;54726;52.000;5.954;2022-08-21T02:46:39;101292.97;;;12.35;84.98
67931;BME280;54726;52.000;5.954;2022-08-21T02:47:42;101295.69;;;12.33;85.32
67931;BME280;54726;52.000;5.954;2022-08-21T02:48:46;101287.84;;;12.30;85.08
67931;BME280;54726;52.000;5.954;2022-08-21T02:49:47;101286.22;;;12.26;85.32
67931;BME280;54726;52.000;5.954;2022-08-21T02:50:52;101281.84;;;12.25;85.36
67931;BME280;54726;52.000;5.954;2022-08-21T02:51:52;101280.91;;;12.26;85.32
67931;BME280;54726;52.000;5.954;2022-08-21T02:52:53;101286.22;;;12.26;85.29
67931;BME280;54726;52.000;5.954;2022-08-21T02:53:55;101288.84;;;12.27;85.35
67931;BME280;54726;52.000;5.954;2022-08-21T02:54:55;101288.84;;;12.27;85.38
67931;BME280;54726;52.000;5.954;2022-08-21T02:55:58;101289.75;;;12.26;85.47
67931;BME280;54726;52.000;5.954;2022-08-21T02:56:58;101276.66;;;12.22;85.51
67931;BME280;54726;52.000;5.954;2022-08-21T02:57:59;101282.66;;;12.27;85.39
67931;BME280;54726;52.000;5.954;2022-08-21T02:59:00;101288.88;;;12.26;85.44
67931;BME280;54726;52.000;5.954;2022-08-21T03:00:00;101282.66;;;12.27;85.55
67931;BME280;54726;52.000;5.954;2022-08-21T03:01:01;101287.09;;;12.26;85.35
67931;BME280;54726;52.000;5.954;2022-08-21T03:02:01;101280.03;;;12.25;85.33
67931;BME280;54726;52.000;5.954;2022-08-21T03:03:03;101277.56;;;12.21;85.42
67931;BME280;54726;52.000;5.954;2022-08-21T03:04:03;101261.94;;;12.13;85.57
67931;BME280;54726;52.000;5.954;2022-08-21T03:05:05;101281.91;;;12.23;85.61
67931;BME280;54726;52.000;5.954;2022-08-21T03:06:06;101283.69;;;12.23;85.57
67931;BME280;54726;52.000;5.954;2022-08-21T03:07:07;101280.31;;;12.19;85.64
67931;BME280;54726;52.000;5.954;2022-08-21T03:08:10;101270.69;;;12.15;85.42
67931;BME280;54726;52.000;5.954;2022-08-21T03:09:12;101278.44;;;12.21;85.62
67931;BME280;54726;52.000;5.954;2022-08-21T03:10:13;101283.69;;;12.23;85.76
67931;BME280;54726;52.000;5.954;2022-08-21T03:11:14;101281.91;;;12.23;85.83
67931;BME280;54726;52.000;5.954;2022-08-21T03:12:15;101273.22;;;12.18;85.86
67931;BME280;54726;52.000;5.954;2022-08-21T03:13:17;101285.50;;;12.22;85.61
67931;BME280;54726;52.000;5.954;2022-08-21T03:14:17;101287.28;;;12.22;85.76
67931;BME280;54726;52.000;5.954;2022-08-21T03:15:21;101277.81;;;12.15;85.72
67931;BME280;54726;52.000;5.954;2022-08-21T03:16:21;101284.69;;;12.20;85.72
67931;BME280;54726;52.000;5.954;2022-08-21T03:17:22;101290.00;;;12.20;85.62
67931;BME280;54726;52.000;5.954;2022-08-21T03:18:22;101283.81;;;12.20;85.77
67931;BME280;54726;52.000;5.954;2022-08-21T03:19:23;101273.31;;;12.17;85.91
67931;BME280;54726;52.000;5.954;2022-08-21T03:20:26;101277.69;;;12.18;85.95
67931;BME280;54726;52.000;5.954;2022-08-21T03:21:27;101281.28;;;12.17;85.79
67931;BME280;54726;52.000;5.954;2022-08-21T03:22:27;101279.56;;;12.16;85.71
67931;BME280;54726;52.000;5.954;2022-08-21T03:23:28;101280.44;;;12.16;85.98
67931;BME280;54726;52.000;5.954;2022-08-21T03:24:29;101271.63;;;12.14;85.74
67931;BME280;54726;52.000;5.954;2022-08-21T03:25:30;101282.28;;;12.14;85.96
67931;BME280;54726;52.000;5.954;2022-08-21T03:26:31;101280.56;;;12.13;85.94
67931;BME280;54726;52.000;5.954;2022-08-21T03:27:31;101268.38;;;12.07;85.86
67931;BME280;54726;52.000;5.954;2022-08-21T03:28:32;101278.06;;;12.08;86.18
67931;BME280;54726;52.000;5.954;2022-08-21T03:29:32;101260.69;;;12.00;86.23
67931;BME280;54726;52.000;5.954;2022-08-21T03:30:33;101280.69;;;12.10;86.23
67931;BME280;54726;52.000;5.954;2022-08-21T03:31:33;101271.88;;;12.08;86.22
67931;BME280;54726;52.000;5.954;2022-08-21T03:32:34;101273.72;;;12.06;86.29
67931;BME280;54726;52.000;5.954;2022-08-21T03:33:34;101275.47;;;12.07;86.43
67931;BME280;54726;52.000;5.954;2022-08-21T03:34:36;101266.75;;;12.03;86.15
67931;BME280;54726;52.000;5.954;2022-08-21T03:35:36;101277.25;;;12.06;86.46
67931;BME280;54726;52.000;5.954;2022-08-21T03:36:37;101277.34;;;12.05;86.28
67931;BME280;54726;52.000;5.954;2022-08-21T03:37:37;101280.97;;;12.02;86.46
67931;BME280;54726;52.000;5.954;2022-08-21T03:38:39;101270.50;;;11.98;86.56
67931;BME280;54726;52.000;5.954;2022-08-21T03:39:41;101283.75;;;11.99;86.31
67931;BME280;54726;52.000;5.954;2022-08-21T03:40:42;101280.16;;;12.00;86.42
67931;BME280;54726;52.000;5.954;2022-08-21T03:41:43;101278.44;;;11.99;86.46
67931;BME280;54726;52.000;5.954;2022-08-21T03:42:44;101274.13;;;11.97;86.54
67931;BME280;54726;52.000;5.954;2022-08-21T03:43:44;101280.28;;;11.97;86.60
67931;BME280;54726;52.000;5.954;2022-08-21T03:44:45;101253.53;;;11.78;86.67
67931;BME280;54726;52.000;5.954;2022-08-21T03:45:45;101279.47;;;11.95;86.58
67931;BME280;54726;52.000;5.954;2022-08-21T03:46:46;101277.81;;;11.93;86.67
67931;BME280;54726;52.000;5.954;2022-08-21T03:47:51;101277.03;;;11.91;86.98
67931;BME280;54726;52.000;5.954;2022-08-21T03:48:52;101272.59;;;11.90;86.87
67931;BME280;54726;52.000;5.954;2022-08-21T03:49:52;101278.03;;;11.86;87.04
67931;BME280;54726;52.000;5.954;2022-08-21T03:50:53;101278.78;;;11.90;86.72
67931;BME280;54726;52.000;5.954;2022-08-21T03:51:53;101274.41;;;11.89;87.13
67931;BME280;54726;52.000;5.954;2022-08-21T03:52:55;101274.47;;;11.88;86.79
67931;BME280;54726;52.000;5.954;2022-08-21T03:53:55;101269.22;;;11.84;86.77
67931;BME280;54726;52.000;5.954;2022-08-21T03:54:57;101276.34;;;11.84;87.16
67931;BME280;54726;52.000;5.954;2022-08-21T03:55:57;101275.47;;;11.83;87.10
67931;BME280;54726;52.000;5.954;2022-08-21T03:56:58;101279.97;;;11.81;87.14
67931;BME280;54726;52.000;5.954;2022-08-21T03:57:59;101273.75;;;11.82;87.00
67931;BME280;54726;52.000;5.954;2022-08-21T03:58:59;101269.59;;;11.75;86.99
67931;BME280;54726;52.000;5.954;2022-08-21T04:00:00;101274.66;;;11.81;86.82
67931;BME280;54726;52.000;5.954;2022-08-21T04:01:02;101280.88;;;11.82;86.95
67931;BME280;54726;52.000;5.954;2022-08-21T04:02:05;101278.25;;;11.80;87.16
67931;BME280;54726;52.000;5.954;2022-08-21T04:03:06;101275.59;;;11.80;87.17
67931;BME280;54726;52.000;5.954;2022-08-21T04:04:06;101276.53;;;11.79;87.01
67931;BME280;54726;52.000;5.954;2022-08-21T04:05:07;101273.88;;;11.79;87.06
67931;BME280;54726;52.000;5.954;2022-08-21T04:06:08;101279.19;;;11.79;87.06
67931;BME280;54726;52.000;5.954;2022-08-21T04:07:08;101273.09;;;11.76;87.14
67931;BME280;54726;52.000;5.954;2022-08-21T04:08:09;101280.09;;;11.78;87.22
67931;BME280;54726;52.000;5.954;2022-08-21T04:09:09;101278.38;;;11.77;87.04
67931;BME280;54726;52.000;5.954;2022-08-21T04:10:11;101275.72;;;11.77;86.94
67931;BME280;54726;52.000;5.954;2022-08-21T04:11:11;101273.94;;;11.78;87.05
67931;BME280;54726;52.000;5.954;2022-08-21T04:12:12;101273.94;;;11.78;87.24
67931;BME280;54726;52.000;5.954;2022-08-21T04:13:13;101270.41;;;11.77;87.09
67931;BME280;54726;52.000;5.954;2022-08-21T04:14:15;101278.38;;;11.77;87.19
67931;BME280;54726;52.000;5.954;2022-08-21T04:15:16;101274.97;;;11.74;87.19
67931;BME280;54726;52.000;5.954;2022-08-21T04:16:16;101274.03;;;11.75;87.31
67931;BME280;54726;52.000;5.954;2022-08-21T04:17:17;101277.56;;;11.75;87.26
67931;BME280;54726;52.000;5.954;2022-08-21T04:18:18;101271.34;;;11.76;87.35
67931;BME280;54726;52.000;5.954;2022-08-21T04:19:18;101262.56;;;11.74;87.31
67931;BME280;54726;52.000;5.954;2022-08-21T04:20:19;101268.59;;;11.78;87.37
67931;BME280;54726;52.000;5.954;2022-08-21T04:21:20;101246.91;;;11.67;87.37
67931;BME280;54726;52.000;5.954;2022-08-21T04:22:21;101266.94;;;11.75;87.08
67931;BME280;54726;52.000;5.954;2022-08-21T04:23:21;101267.88;;;11.74;87.26
67931;BME280;54726;52.000;5.954;2022-08-21T04:24:22;101261.75;;;11.72;87.22
67931;BME280;54726;52.000;5.954;2022-08-21T04:25:24;101262.69;;;11.71;87.49
67931;BME280;54726;52.000;5.954;2022-08-21T04:26:25;101268.00;;;11.71;87.42
67931;BME280;54726;52.000;5.954;2022-08-21T04:27:25;101271.56;;;11.70;87.39
67931;BME280;54726;52.000;5.954;2022-08-21T04:28:26;101256.59;;;11.68;87.07
67931;BME280;54726;52.000;5.954;2022-08-21T04:29:27;101260.06;;;11.70;87.49
67931;BME280;54726;52.000;5.954;2022-08-21T04:30:27;101261.88;;;11.69;87.35
67931;BME280;54726;52.000;5.954;2022-08-21T04:31:28;101264.53;;;11.69;87.54
67931;BME280;54726;52.000;5.954;2022-08-21T04:32:29;101253.38;;;11.59;87.48
67931;BME280;54726;52.000;5.954;2022-08-21T04:33:29;101262.97;;;11.63;87.50
67931;BME280;54726;52.000;5.954;2022-08-21T04:34:29;101256.78;;;11.63;87.64
67931;BME280;54726;52.000;5.954;2022-08-21T04:35:30;101268.13;;;11.68;87.47
67931;BME280;54726;52.000;5.954;2022-08-21T04:36:31;101266.38;;;11.67;87.41
67931;BME280;54726;52.000;5.954;2022-08-21T04:37:31;101265.50;;;11.67;87.67
67931;BME280;54726;52.000;5.954;2022-08-21T04:38:32;101271.69;;;11.67;87.68
67931;BME280;54726;52.000;5.954;2022-08-21T04:39:33;101264.56;;;11.68;87.53
67931;BME280;54726;52.000;5.954;2022-08-21T04:40:34;101260.19;;;11.67;87.81
67931;BME280;54726;52.000;5.954;2022-08-21T04:41:35;101263.72;;;11.67;87.68
67931;BME280;54726;52.000;5.954;2022-08-21T04:42:42;101263.72;;;11.67;87.56
67931;BME280;54726;52.000;5.954;2022-08-21T04:43:43;101264.56;;;11.68;87.63
67931;BME280;54726;52.000;5.954;2022-08-21T04:44:43;101265.56;;;11.65;87.61
67931;BME280;54726;52.000;5.954;2022-08-21T04:45:46;101257.78;;;11.60;87.47
67931;BME280;54726;52.000;5.954;2022-08-21T04:46:46;101267.41;;;11.63;87.42
67931;BME280;54726;52.000;5.954;2022-08-21T04:47:48;101263.00;;;11.62;87.43
67931;BME280;54726;52.000;5.954;2022-08-21T04:48:49;101252.59;;;11.57;87.80
67931;BME280;54726;52.000;5.954;2022-08-21T04:49:50;101254.25;;;11.60;87.55
67931;BME280;54726;52.000;5.954;2022-08-21T04:50:55;101262.91;;;11.65;87.53
67931;BME280;54726;52.000;5.954;2022-08-21T04:51:56;101261.97;;;11.66;87.56
67931;BME280;54726;52.000;5.954;2022-08-21T04:52:57;101266.38;;;11.67;87.51
67931;BME280;54726;52.000;5.954;2022-08-21T04:53:59;101277.94;;;11.66;87.45
67931;BME280;54726;52.000;5.954;2022-08-21T04:55:01;101266.47;;;11.64;87.61
67931;BME280;54726;52.000;5.954;2022-08-21T04:56:06;101270.00;;;11.64;87.78
67931;BME280;54726;52.000;5.954;2022-08-21T04:57:08;101261.97;;;11.66;87.64
67931;BME280;54726;52.000;5.954;2022-08-21T04:58:09;101267.47;;;11.61;87.76
67931;BME280;54726;52.000;5.954;2022-08-21T04:59:16;101269.13;;;11.64;87.58
67931;BME280;54726;52.000;5.954;2022-08-21T05:00:17;101268.22;;;11.65;87.55
67931;BME280;54726;52.000;5.954;2022-08-21T05:01:20;101268.22;;;11.65;87.53
67931;BME280;54726;52.000;5.954;2022-08-21T05:02:21;101265.50;;;11.67;87.64
67931;BME280;54726;52.000;5.954;2022-08-21T05:03:22;101257.78;;;11.60;87.60
67931;BME280;54726;52.000;5.954;2022-08-21T05:04:25;101266.44;;;11.65;87.52
67931;BME280;54726;52.000;5.954;2022-08-21T05:05:27;101273.31;;;11.71;87.47
67931;BME280;54726;52.000;5.954;2022-08-21T05:06:31;101268.78;;;11.73;87.48
67931;BME280;54726;52.000;5.954;2022-08-21T05:07:33;101273.22;;;11.73;87.21
67931;BME280;54726;52.000;5.954;2022-08-21T05:08:34;101274.00;;;11.76;87.12
67931;BME280;54726;52.000;5.954;2022-08-21T05:09:35;101266.03;;;11.76;87.19
67931;BME280;54726;52.000;5.954;2022-08-21T05:10:37;101270.44;;;11.76;87.03
67931;BME280;54726;52.000;5.954;2022-08-21T05:11:39;101273.19;;;11.74;87.33
67931;BME280;54726;52.000;5.954;2022-08-21T05:12:40;101270.41;;;11.77;87.45
67931;BME280;54726;52.000;5.954;2022-08-21T05:13:40;101271.25;;;11.78;87.37
67931;BME280;54726;52.000;5.954;2022-08-21T05:14:41;101273.88;;;11.79;87.48
67931;BME280;54726;52.000;5.954;2022-08-21T05:15:41;101274.75;;;11.80;87.30
67931;BME280;54726;52.000;5.954;2022-08-21T05:16:42;101275.59;;;11.80;87.28
67931;BME280;54726;52.000;5.954;2022-08-21T05:17:42;101272.00;;;11.81;87.48
67931;BME280;54726;52.000;5.954;2022-08-21T05:18:43;101278.13;;;11.83;87.29
67931;BME280;54726;52.000;5.954;2022-08-21T05:19:43;101274.53;;;11.84;87.25
67931;BME280;54726;52.000;5.954;2022-08-21T05:20:44;101276.31;;;11.85;87.33